Date,TemperatureHighF,TemperatureAvgF,TemperatureLowF,DewpointHighF,DewpointAvgF,DewpointLowF,HumidityHigh,HumidityAvg,HumidityLow,PressureMaxIn,PressureMinIn,WindSpeedMaxMPH,WindSpeedAvgMPH,GustSpeedMaxMPH,PrecipitationSumIn
2013-1-1,52,40,34,37,33,28,98,76,45,30.36,30.24,6,0,6,0.00
2013-1-2,53,39,29,41,31,25,96,75,47,30.33,30.18,4,0,4,0.00
2013-1-3,53,40,29,41,33,27,98,80,52,30.36,30.21,4,0,4,0.00
2013-1-4,53,40,30,43,35,27,98,85,58,30.36,30.24,5,0,6,0.00
2013-1-5,54,43,33,45,40,34,98,89,66,30.33,30.12,6,1,8,0.49
2013-1-6,53,46,38,48,44,37,98,92,72,30.24,30.12,4,1,5,0.34
2013-1-7,53,42,36,48,40,36,98,91,66,30.33,30.18,5,1,7,0.00
2013-1-8,54,45,35,48,41,36,98,87,67,30.33,30.12,3,0,4,0.00
2013-1-9,49,40,38,46,40,37,98,98,90,30.15,30.12,3,0,5,0.00
2013-1-10,51,39,30,41,32,27,98,77,42,30.21,30.07,5,1,9,0.00
2013-1-11,50,38,27,37,29,23,96,73,49,30.30,30.18,3,0,4,0.00
2013-1-12,47,36,31,34,28,18,87,73,37,30.30,30.12,6,0,6,0.00
2013-1-13,45,36,25,30,23,19,91,62,41,30.33,30.18,7,1,9,0.00
2013-1-14,49,39,29,25,20,12,70,47,30,30.48,30.24,9,1,10,0.00
2013-1-15,50,38,29,34,28,23,83,67,47,30.57,30.42,4,0,4,0.00
2013-1-16,56,40,28,39,30,25,95,72,45,30.51,30.30,3,0,4,0.00
2013-1-17,58,41,29,41,31,25,95,72,42,30.33,30.21,4,0,4,0.00
2013-1-18,60,42,29,43,32,27,97,69,37,30.33,30.18,3,0,4,0.00
2013-1-19,60,44,30,41,33,27,96,71,37,30.36,30.21,4,0,5,0.00
2013-1-20,62,36,30,41,30,27,96,81,35,30.30,30.18,4,0,5,0.00
2013-1-21,61,43,31,43,35,27,97,73,46,30.27,30.15,4,0,4,0.00
2013-1-22,62,46,33,45,38,32,97,76,48,30.21,30.07,4,0,6,0.00
2013-1-23,58,49,44,50,45,39,97,84,58,30.15,30.01,6,1,10,0.08
2013-1-24,56,51,48,54,50,48,98,95,84,30.27,30.09,4,1,6,0.04
2013-1-25,66,56,50,59,54,50,98,90,67,30.27,30.07,5,1,6,0.00
2013-1-26,62,52,44,54,46,37,98,81,45,30.09,29.95,9,2,13,0.00
2013-1-27,57,46,34,43,34,28,97,66,43,30.21,30.07,7,1,8,0.00
2013-1-28,58,45,32,43,34,30,94,66,41,30.30,30.18,10,1,11,0.00
2013-1-29,61,47,37,43,37,32,95,70,40,30.39,30.27,8,1,12,0.00
2013-1-30,64,47,36,45,39,34,93,73,47,30.42,30.30,4,0,7,0.00
2013-1-31,66,49,35,48,41,34,97,76,47,30.36,30.21,4,0,5,0.00
2013-2-1,66,49,35,48,42,36,98,78,46,30.27,30.15,3,0,5,0.00
2013-2-2,66,49,41,50,43,41,96,80,45,30.33,30.24,4,0,5,0.00
2013-2-3,66,47,38,52,42,37,98,84,49,30.30,30.15,5,0,8,0.00
2013-2-4,64,49,38,52,44,37,98,83,54,30.21,30.07,5,0,6,0.00
2013-2-5,62,50,37,50,44,37,98,81,53,30.15,30.07,8,1,8,0.00
2013-2-6,63,48,39,50,41,37,98,80,45,30.24,30.12,6,1,7,0.00
2013-2-7,60,44,38,48,39,32,98,82,39,30.21,30.01,8,2,10,0.00
2013-2-8,60,47,35,43,34,27,98,64,35,30.07,29.95,6,2,10,0.00
2013-2-9,62,45,32,34,28,25,75,51,34,30.15,30.01,6,1,6,0.00
2013-2-10,65,47,36,39,33,27,77,60,37,30.18,30.03,5,0,7,0.00
2013-2-11,63,47,32,39,34,28,91,62,37,30.30,30.09,5,0,6,0.00
2013-2-12,65,48,34,41,34,28,90,59,38,30.45,30.27,6,0,6,0.00
2013-2-13,68,51,36,43,37,30,90,59,40,30.39,30.24,4,0,5,0.00
2013-2-14,70,47,36,46,38,34,94,73,37,30.30,30.18,7,0,7,0.00
2013-2-15,72,54,38,48,42,37,96,67,39,30.33,30.24,5,0,6,0.00
2013-2-16,72,54,40,48,41,37,94,66,37,30.30,30.07,4,0,4,0.00
2013-2-17,69,52,37,48,39,30,98,64,34,30.09,29.98,6,1,7,0.00
2013-2-18,62,49,36,46,39,34,95,70,46,30.07,29.95,8,2,13,0.00
2013-2-19,54,44,38,46,39,36,94,81,62,29.98,29.77,8,2,12,0.00
2013-2-20,64,46,33,43,34,27,98,65,32,30.07,29.86,7,2,10,0.00
2013-2-21,64,48,36,41,34,23,93,60,30,30.21,30.07,6,1,10,0.00
2013-2-22,67,51,34,43,36,28,86,59,35,30.30,30.18,5,1,6,0.00
2013-2-23,63,52,42,43,32,23,95,52,24,30.27,30.18,10,2,13,0.00
2013-2-24,68,51,40,32,22,-9,56,37,4,30.30,30.18,8,2,8,0.00
2013-2-25,67,51,35,43,34,27,82,54,34,30.33,30.18,6,1,11,0.00
2013-2-26,68,53,39,34,21,-11,71,36,4,30.27,30.12,9,2,11,0.00
2013-2-27,72,48,35,41,31,25,77,53,28,30.42,30.24,4,0,5,0.00
2013-2-28,75,58,41,52,41,34,85,55,31,30.48,30.39,6,1,10,0.00
2013-3-1,78,58,41,52,45,39,95,64,34,30.45,30.27,4,0,6,0.00
2013-3-2,76,61,47,54,48,43,88,64,41,30.30,30.07,5,0,5,0.00
2013-3-3,71,61,53,54,49,46,83,66,45,30.09,30.01,8,1,8,0.00
2013-3-4,69,48,43,52,44,41,97,86,48,30.18,30.07,8,0,9,0.00
2013-3-5,66,53,43,46,41,37,91,65,38,30.09,29.89,10,2,13,0.00
2013-3-6,63,53,46,48,41,34,93,64,40,30.12,29.89,8,2,9,0.00
2013-3-7,67,52,39,45,39,34,95,66,37,30.03,29.89,7,1,8,0.00
2013-3-8,69,53,39,43,40,36,93,64,33,30.07,29.83,12,2,16,0.00
2013-3-9,74,55,39,46,32,-20,97,52,2,30.33,30.07,7,1,11,0.00
2013-3-10,72,55,40,48,38,27,87,55,34,30.42,30.27,5,1,6,0.00
2013-3-11,76,58,42,50,43,37,93,59,32,30.30,30.12,6,0,6,0.00
2013-3-12,81,62,44,52,46,41,94,60,33,30.21,30.07,5,1,7,0.00
2013-3-13,84,64,46,55,49,45,95,62,32,30.21,30.07,5,0,6,0.00
2013-3-14,84,67,49,57,51,45,93,58,37,30.18,30.07,6,1,6,0.00
2013-3-15,80,62,48,54,48,43,91,63,33,30.18,30.01,6,1,8,0.00
2013-3-16,82,62,46,52,46,37,95,60,21,30.09,30.01,8,1,8,0.00
2013-3-17,75,60,46,45,40,21,85,50,13,30.18,30.03,8,2,10,0.00
2013-3-18,74,60,42,48,42,37,89,54,32,30.18,30.03,6,1,7,0.00
2013-3-19,77,58,46,50,46,41,93,65,36,30.18,30.07,6,1,10,0.04
2013-3-20,69,58,51,57,54,48,97,85,61,30.15,30.09,6,2,10,0.21
2013-3-21,71,58,42,54,37,-11,98,55,4,30.18,30.01,7,1,13,0.00
2013-3-22,69,58,46,30,12,-13,39,23,4,30.12,30.03,11,3,14,0.00
2013-3-23,75,58,43,36,22,-20,56,31,2,30.21,30.07,7,1,7,0.00
2013-3-24,79,61,40,48,40,32,75,48,24,30.15,29.95,6,0,6,0.00
2013-3-25,74,58,44,50,43,39,85,60,35,30.07,29.95,8,2,10,0.00
2013-3-26,78,60,46,50,45,41,87,60,33,30.07,29.95,6,1,7,0.00
2013-3-27,74,60,47,52,48,41,86,66,44,30.07,29.95,11,2,12,0.00
2013-3-28,78,64,54,55,52,46,91,67,39,30.12,30.03,6,1,8,0.04
2013-3-29,86,67,51,55,50,45,94,59,29,30.15,30.01,5,1,8,0.00
2013-3-30,82,64,53,55,51,46,91,66,37,30.09,29.98,10,3,13,0.00
2013-3-31,78,63,56,61,54,46,98,76,38,30.15,30.01,12,2,12,0.00
2013-4-1,79,64,53,61,53,46,97,71,41,30.18,30.07,8,2,10,0.00
2013-4-2,77,62,49,55,51,48,98,69,38,30.21,30.07,8,2,8,0.00
2013-4-3,83,64,48,57,51,46,94,65,35,30.18,29.98,4,1,6,0.00
2013-4-4,72,60,53,63,54,43,98,80,53,30.15,30.01,9,3,12,0.08
2013-4-5,73,62,50,59,52,48,96,72,43,30.21,30.12,12,2,12,0.00
2013-4-6,75,61,52,55,52,48,94,72,45,30.24,30.12,6,1,8,0.00
2013-4-7,72,61,51,55,50,45,92,68,46,30.18,29.86,12,3,15,0.00
2013-4-8,72,61,49,50,34,-9,91,41,4,30.03,29.77,10,4,17,0.05
2013-4-9,79,68,52,39,22,-20,47,24,2,30.12,30.03,10,2,14,0.00
2013-4-10,91,69,53,54,42,34,55,39,22,30.24,30.07,6,1,7,0.00
2013-4-11,83,68,56,50,24,-18,73,36,2,29.86,29.83,6,2,6,0.00
2013-4-12,89,65,48,52,46,39,85,56,18,29.98,29.83,8,2,8,0.00
2013-4-13,84,64,50,54,47,43,75,55,33,29.92,29.77,10,2,10,0.00
2013-4-14,82,63,47,46,37,-17,80,48,2,29.95,29.77,15,3,15,0.00
2013-4-15,72,62,45,48,43,32,90,52,32,29.95,29.80,13,2,13,0.00
2013-4-16,73,60,47,36,14,-15,50,25,3,30.18,29.95,13,2,13,0.00
2013-4-17,76,61,47,36,11,-20,48,23,2,30.30,30.18,11,2,11,0.34
2013-4-18,85,66,45,41,19,-20,49,26,2,30.33,30.18,6,1,6,0.00
2013-4-19,90,70,49,52,45,34,67,42,22,30.27,30.07,8,1,8,0.00
2013-4-20,89,72,59,50,30,-15,57,30,2,30.15,29.95,11,2,11,0.00
2013-4-21,94,75,62,52,33,-13,47,30,2,30.07,29.92,11,1,11,0.00
2013-4-22,95,78,57,54,29,-20,64,27,2,30.01,29.83,8,1,8,0.00
2013-4-23,93,79,60,43,-4,-20,45,7,2,29.98,29.83,8,2,8,0.00
2013-4-24,98,39,0,50,37,-9,78,21,2,29.95,29.77,15,2,15,0.00
2013-4-25,79,63,52,52,48,46,86,60,36,30.12,29.89,13,4,13,0.00
2013-4-26,89,68,49,55,50,46,91,57,30,30.24,30.12,8,2,8,0.00
2013-4-27,95,71,50,59,51,46,89,54,27,30.24,30.03,58,1,58,0.00
2013-4-28,98,75,53,59,50,19,80,48,7,30.07,29.86,9,1,9,0.00
2013-4-29,98,79,60,54,40,-8,72,37,2,29.92,29.71,9,1,9,0.00
2013-4-30,89,76,65,54,8,-20,65,17,2,29.86,29.77,10,2,10,0.00
2013-5-1,94,76,61,34,-7,-20,28,5,2,30.09,29.83,12,2,12,0.00
2013-5-2,99,78,58,37,14,-17,36,17,2,30.21,30.07,6,1,8,0.00
2013-5-3,99,78,56,50,28,-11,48,25,2,30.09,29.77,6,1,8,0.00
2013-5-4,96,77,57,48,26,-13,63,28,2,29.80,29.50,8,2,10,0.00
2013-5-5,86,68,56,52,49,46,78,52,30,29.83,29.59,8,4,10,0.00
2013-5-6,84,67,58,57,52,45,94,63,33,29.98,29.83,10,1,15,0.00
2013-5-7,81,65,58,57,53,48,93,66,35,30.07,29.95,12,2,12,0.00
2013-5-8,80,65,56,55,52,50,91,65,36,30.15,30.01,9,3,11,0.00
2013-5-9,86,67,52,57,52,48,91,63,37,30.18,30.03,10,2,12,0.00
2013-5-10,92,71,53,63,55,50,91,60,34,30.18,30.07,7,1,8,0.00
2013-5-11,100,78,58,64,56,52,82,51,28,30.15,30.01,6,1,6,0.00
2013-5-12,98,76,58,59,50,-6,70,43,2,30.15,29.98,10,2,12,0.00
2013-5-13,98,76,58,59,51,43,74,44,20,30.09,29.89,10,2,10,0.00
2013-5-14,94,75,58,59,52,45,79,48,28,29.95,29.86,8,2,10,0.00
2013-5-15,82,69,57,52,47,45,66,46,31,30.03,29.95,10,2,12,0.00
2013-5-16,85,68,57,57,51,45,76,56,33,30.07,29.92,10,2,14,0.00
2013-5-17,83,66,52,54,46,37,92,52,27,30.09,29.95,10,2,13,0.00
2013-5-18,90,72,50,54,47,30,90,47,13,30.15,29.98,8,2,8,0.00
2013-5-19,90,74,57,52,37,-13,84,37,2,30.15,29.95,9,2,12,0.00
2013-5-20,98,79,62,52,29,-9,66,26,2,30.03,29.89,8,2,12,0.00
2013-5-21,84,69,56,50,45,39,61,43,28,29.95,29.86,11,3,14,0.00
2013-5-22,80,64,51,45,21,-20,66,29,2,30.03,29.89,8,3,10,0.00
2013-5-23,84,65,48,48,40,-15,76,47,2,30.01,29.89,6,1,8,0.00
2013-5-24,86,67,50,52,40,-15,86,44,2,30.03,29.92,10,2,10,0.00
2013-5-25,84,66,50,54,46,39,82,50,30,30.03,29.95,11,2,11,0.00
2013-5-26,87,63,52,55,50,45,85,65,32,30.12,30.01,13,1,13,0.00
2013-5-27,73,63,53,57,51,46,91,67,44,30.12,30.03,8,2,11,0.00
2013-5-28,86,70,59,61,55,50,93,62,31,30.03,29.89,8,2,11,0.00
2013-5-29,88,72,60,59,52,48,77,51,30,29.98,29.86,11,2,13,0.00
2013-5-30,93,73,55,55,48,19,76,46,7,30.01,29.89,8,2,10,0.00
2013-5-31,99,77,55,55,35,-11,77,35,2,30.03,29.89,11,2,11,0.00
2013-6-1,104,85,58,57,34,-6,80,29,2,29.92,29.74,9,1,10,0.00
2013-6-2,103,81,61,59,50,39,69,38,12,29.77,29.59,10,2,10,0.00
2013-6-3,92,75,59,61,53,46,74,49,30,29.80,29.65,9,2,14,0.00
2013-6-4,85,69,57,57,53,48,83,59,37,29.95,29.74,11,3,12,0.00
2013-6-5,91,70,55,59,54,50,88,59,33,30.01,29.83,8,3,10,0.00
2013-6-6,98,74,56,64,55,52,90,56,29,29.95,29.77,7,2,9,0.00
2013-6-7,108,82,58,66,58,52,83,49,21,29.89,29.68,7,2,10,0.00
2013-6-8,113,88,0,64,58,50,65,39,15,29.83,29.59,14,2,14,0.00
2013-6-9,81,69,60,57,55,52,80,61,41,29.86,29.71,18,5,18,0.00
2013-6-10,81,67,58,55,53,48,87,62,40,29.98,29.80,13,4,15,0.00
2013-6-11,85,76,59,57,56,54,83,52,39,30.01,29.92,8,2,8,0.00
2013-6-12,93,71,59,61,51,43,75,51,22,29.98,29.89,13,2,13,0.00
2013-6-13,94,73,53,54,38,-9,72,39,2,30.09,29.95,10,2,10,0.00
2013-6-14,96,78,60,50,34,-8,70,30,2,29.98,29.80,10,2,10,0.00
2013-6-15,95,68,56,57,46,39,65,47,18,29.98,29.80,10,2,10,0.00
2013-6-16,96,76,56,55,51,46,73,45,23,30.03,29.95,13,2,13,0.00
2013-6-17,91,66,56,57,50,46,81,58,28,30.07,29.95,17,1,17,0.00
2013-6-18,87,69,57,55,51,45,86,55,30,30.03,29.92,16,3,16,0.00
2013-6-19,88,70,50,54,44,-13,84,46,2,30.07,29.95,10,2,10,0.00
2013-6-20,93,77,54,55,50,43,80,41,19,30.01,29.89,12,2,12,0.00
2013-6-21,95,76,56,55,42,-8,81,38,2,30.01,29.89,10,2,10,0.00
2013-6-22,100,80,57,57,44,-6,78,37,2,29.92,29.77,11,2,11,0.00
2013-6-23,84,69,60,61,57,48,85,67,42,29.86,29.77,17,3,17,0.00
2013-6-24,74,65,62,64,60,55,94,82,58,29.95,29.80,6,1,6,0.00
2013-6-25,83,68,63,72,64,61,96,87,55,30.01,29.92,10,1,10,0.00
2013-6-26,94,78,62,66,62,55,97,63,34,30.07,29.95,12,2,12,0.00
2013-6-27,104,83,63,64,60,41,90,51,15,30.09,29.95,8,2,8,0.00
2013-6-28,110,88,67,66,60,54,77,44,20,30.01,29.83,10,2,10,0.00
2013-6-29,111,91,68,64,58,52,65,36,14,29.92,29.74,10,2,10,0.00
2013-6-30,110,89,69,66,58,52,66,37,16,29.83,29.71,11,2,11,0.00
2013-7-1,111,89,67,66,56,3,73,38,2,29.83,29.74,8,1,8,0.00
2013-7-2,109,88,74,66,58,50,62,38,24,29.89,29.77,14,3,14,0.00
2013-7-3,111,86,67,66,60,54,74,44,24,29.89,29.71,12,2,12,0.00
2013-7-4,112,90,73,68,60,48,69,40,18,29.77,29.59,13,2,13,0.00
2013-7-5,91,77,64,57,51,43,65,41,30,29.77,29.62,11,3,12,0.00
2013-7-6,94,74,58,59,54,48,86,54,28,29.80,29.68,10,3,10,0.00
2013-7-7,100,77,58,59,46,-11,86,47,2,29.83,29.74,8,3,8,0.00
2013-7-8,102,78,57,59,40,-11,93,43,2,29.95,29.83,9,2,9,0.00
2013-7-9,106,84,0,61,40,-8,78,36,2,30.03,29.89,8,2,8,0.00
2013-7-10,101,74,63,61,49,-8,71,47,2,29.98,29.83,13,2,13,0.00
2013-7-11,96,73,55,57,52,43,88,52,18,29.92,29.83,10,2,10,0.00
2013-7-12,95,74,57,59,54,46,90,54,27,29.95,29.83,10,2,10,0.00
2013-7-13,102,79,59,57,42,-8,81,39,2,29.95,29.86,10,2,10,0.00
2013-7-14,100,71,60,59,51,43,73,52,17,30.01,29.83,10,2,10,0.00
2013-7-15,88,70,56,57,52,48,90,57,29,29.92,29.77,12,3,12,0.00
2013-7-16,83,73,56,55,54,50,91,53,38,30.03,29.83,14,4,14,0.00
2013-7-17,98,74,55,59,54,48,93,56,19,30.09,29.95,10,2,10,0.00
2013-7-18,103,79,56,61,50,-6,89,47,2,30.03,29.89,10,2,10,0.00
2013-7-19,104,80,59,61,54,46,83,45,17,29.95,29.74,11,2,11,0.00
2013-7-20,103,79,60,63,55,48,83,47,22,29.86,29.65,10,2,10,0.00
2013-7-21,98,78,62,57,53,45,72,45,21,29.86,29.71,13,4,13,0.00
2013-7-22,95,77,64,57,52,12,77,45,9,29.98,29.83,13,3,13,0.00
2013-7-23,97,79,68,57,51,45,53,38,21,30.01,29.89,13,2,13,0.00
2013-7-24,103,82,63,61,54,46,80,41,18,30.01,29.86,10,2,10,0.00
2013-7-25,100,81,66,63,54,48,61,42,28,29.98,29.89,11,2,11,0.00
2013-7-26,99,79,61,63,55,50,83,45,28,30.07,29.92,10,2,10,0.00
2013-7-27,97,75,58,61,56,52,91,54,29,29.98,29.80,10,2,10,0.00
2013-7-28,92,73,58,63,55,48,92,57,30,29.89,29.74,11,3,11,0.00
2013-7-29,86,68,57,57,54,50,90,61,34,29.98,29.80,12,3,12,0.00
2013-7-30,94,72,56,59,54,45,92,59,20,30.12,29.95,11,3,11,0.00
2013-7-31,91,72,57,57,52,46,92,54,29,30.09,29.95,12,2,12,0.00
2013-8-1,91,72,57,55,50,43,77,48,20,30.07,29.92,12,2,12,0.00
2013-8-2,98,80,57,59,50,43,90,40,18,30.01,29.83,9,2,9,0.00
2013-8-3,96,74,57,59,53,46,88,51,24,29.98,29.86,10,2,10,0.00
2013-8-4,94,72,56,59,54,50,91,57,25,30.01,29.89,10,3,10,0.00
2013-8-5,94,72,57,57,53,45,92,57,21,30.03,29.89,10,3,10,0.00
2013-8-6,86,72,55,57,54,50,92,58,35,30.03,29.95,10,4,10,0.00
2013-8-7,83,68,60,57,55,52,84,64,40,30.09,30.01,13,4,13,0.00
2013-8-8,89,70,57,57,54,48,93,62,28,30.07,29.89,11,3,12,0.00
2013-8-9,88,70,56,59,55,50,92,63,33,29.98,29.89,11,2,11,0.00
2013-8-10,91,71,59,59,56,52,91,63,32,30.03,29.95,12,3,12,0.00
2013-8-11,96,78,57,61,55,48,93,52,26,30.03,29.89,9,2,11,0.00
2013-8-12,97,76,58,61,51,-8,89,48,2,30.01,29.89,8,2,8,0.00
2013-8-13,103,79,59,59,45,-6,79,40,2,30.01,29.86,9,1,9,0.00
2013-8-14,100,72,60,59,51,45,73,50,18,29.98,29.83,9,1,11,0.00
2013-8-15,100,79,62,63,59,55,85,55,26,29.98,29.86,11,2,11,0.00
2013-8-16,102,80,63,66,59,48,92,53,24,29.98,29.89,11,2,11,0.00
2013-8-17,97,77,63,61,55,48,83,48,29,29.98,29.83,12,2,12,0.00
2013-8-18,106,84,63,64,59,54,79,47,22,29.92,29.74,8,1,8,0.00
2013-8-19,107,85,70,66,58,48,70,44,15,29.92,29.71,10,2,10,0.00
2013-8-20,98,78,66,61,56,52,77,48,28,29.89,29.77,13,3,13,0.00
2013-8-21,93,74,61,59,54,48,86,53,24,29.95,29.83,11,2,11,0.00
2013-8-22,89,71,58,57,54,48,88,56,31,29.95,29.83,11,2,11,0.00
2013-8-23,94,73,56,59,54,50,94,57,27,29.92,29.77,9,2,9,0.00
2013-8-24,94,74,60,57,54,52,76,52,28,29.89,29.80,14,2,14,0.00
2013-8-25,94,75,62,66,60,54,90,62,32,29.95,29.83,13,2,13,0.00
2013-8-26,94,74,60,61,55,48,91,57,25,30.03,29.89,10,2,10,0.00
2013-8-27,98,76,58,61,53,45,85,50,19,29.92,29.77,10,2,10,0.00
2013-8-28,98,77,60,61,58,52,92,56,23,29.95,29.83,9,2,9,0.00
2013-8-29,96,77,61,64,59,55,93,59,27,30.03,29.92,10,1,10,0.00
2013-8-30,102,80,59,66,57,45,94,53,15,30.03,29.89,7,1,8,0.00
2013-8-31,98,78,64,61,53,46,77,45,18,29.98,29.83,13,2,13,0.00
2013-9-1,96,76,63,59,55,48,73,50,21,29.95,29.83,11,2,11,0.00
2013-9-2,86,73,68,72,61,57,80,65,50,29.98,29.86,6,1,6,0.00
2013-9-3,91,75,62,59,54,48,80,53,24,29.98,29.89,11,2,11,0.00
2013-9-4,93,74,60,59,54,46,91,55,23,30.07,29.89,10,2,10,0.00
2013-9-5,91,73,58,59,54,50,88,56,26,30.03,29.89,10,2,10,0.00
2013-9-6,98,76,56,61,45,-9,92,45,2,30.01,29.83,8,0,8,0.00
2013-9-7,104,80,58,59,40,-6,74,35,2,29.92,29.77,8,0,8,0.00
2013-9-8,104,82,62,59,43,-9,74,36,2,29.86,29.71,10,1,10,0.00
2013-9-9,105,82,62,61,46,0,73,38,2,29.80,29.62,8,1,8,0.00
2013-9-10,90,73,62,61,56,46,84,57,35,29.89,29.65,14,3,14,0.00
2013-9-11,85,70,62,59,58,54,88,67,40,29.98,29.86,11,3,11,0.00
2013-9-12,93,73,59,64,59,55,94,65,32,29.98,29.83,13,2,13,0.00
2013-9-13,95,74,60,63,57,50,93,59,29,29.92,29.71,8,2,8,0.00
2013-9-14,90,72,59,59,55,50,89,58,33,29.80,29.68,10,2,10,0.00
2013-9-15,91,71,57,59,55,50,89,60,29,29.89,29.74,12,2,12,0.00
2013-9-16,92,73,58,64,56,50,96,60,27,29.92,29.74,7,1,10,0.00
2013-9-17,89,71,57,57,53,48,86,56,29,29.86,29.80,10,2,10,0.00
2013-9-18,90,72,59,54,40,-13,77,39,2,29.95,29.80,13,2,13,0.00
2013-9-19,97,74,53,52,37,-9,70,37,2,29.89,29.71,6,0,6,0.00
2013-9-20,85,69,57,59,51,39,80,53,37,29.86,29.74,14,3,14,0.00
2013-9-21,74,63,56,64,58,52,95,84,48,29.92,29.83,11,1,11,0.00
2013-9-22,80,65,54,61,54,50,97,71,39,30.03,29.89,8,1,8,0.00
2013-9-23,89,70,54,59,54,48,95,63,29,30.03,29.92,6,1,6,0.00
2013-9-24,86,68,58,59,53,46,87,62,31,29.98,29.83,16,2,16,0.00
2013-9-25,79,64,50,50,45,36,90,53,21,29.95,29.80,8,2,8,0.00
2013-9-26,79,66,54,43,37,32,52,36,20,29.98,29.83,14,2,14,0.00
2013-9-27,84,65,52,45,36,-18,52,37,2,30.15,29.98,8,1,8,0.00
2013-9-28,90,68,49,54,35,-15,72,37,2,30.12,29.98,7,1,7,0.00
2013-9-29,82,68,57,59,56,52,88,66,41,30.15,30.03,13,3,13,0.00
2013-9-30,84,68,59,63,59,55,93,73,43,30.09,29.98,11,1,11,0.00
2013-10-1,83,66,51,55,48,41,81,54,27,30.07,29.92,10,1,10,0.00
2013-10-2,85,67,53,50,45,41,75,48,24,30.03,29.92,8,2,8,0.00
2013-10-3,77,66,56,41,20,-20,55,25,2,30.07,29.92,14,2,14,0.00
2013-10-4,86,69,56,36,14,-20,37,18,2,30.12,30.01,10,2,10,0.00
2013-10-5,89,66,47,43,20,-20,54,29,2,30.27,30.12,5,0,5,0.00
2013-10-6,89,65,46,48,33,-15,73,40,2,30.18,30.01,4,0,4,0.00
2013-10-7,89,68,50,48,25,-17,75,32,2,30.03,29.83,7,0,7,0.00
2013-10-8,84,65,52,43,37,-15,65,40,2,29.92,29.68,8,1,8,0.00
2013-10-9,79,66,52,45,40,32,69,38,24,29.77,29.59,10,2,10,0.00
2013-10-10,80,63,51,48,43,34,75,50,29,30.03,29.77,6,1,6,0.00
2013-10-11,80,62,47,52,45,41,88,57,31,30.12,29.95,8,1,8,0.00
2013-10-12,79,62,48,54,45,39,92,58,30,30.03,29.89,8,1,8,0.00
2013-10-13,79,63,50,48,41,36,78,49,23,30.07,29.89,12,1,12,0.00
2013-10-14,82,64,46,46,37,10,76,41,7,30.15,30.01,7,1,7,0.00
2013-10-15,53,49,47,39,36,34,67,59,48,30.07,30.03,2,0,2,0.00
2013-10-16,84,63,46,46,33,10,73,38,6,30.15,30.01,4,0,4,0.00
2013-10-17,86,63,47,46,35,-17,78,45,2,30.12,29.95,7,0,7,0.00
2013-10-18,88,63,46,48,40,34,82,45,19,30.09,29.98,4,0,4,0.00
2013-10-19,88,69,48,52,40,19,87,40,8,30.12,30.01,4,0,4,0.00
2013-10-20,88,64,46,48,41,36,78,47,20,30.07,29.89,6,0,6,0.00
2013-10-21,86,64,49,52,44,37,89,51,27,30.07,29.89,4,0,4,0.00
2013-10-22,88,64,48,55,46,39,93,56,20,30.03,29.89,7,0,7,0.00
2013-10-23,86,64,48,50,45,34,90,56,19,29.98,29.86,6,1,6,0.00
2013-10-24,73,58,48,52,46,43,94,68,43,30.12,29.95,10,1,10,0.00
2013-10-25,77,60,45,54,46,41,95,65,34,30.21,30.07,5,0,5,0.00
2013-10-26,84,61,45,52,45,39,90,58,28,30.21,30.01,6,0,6,0.00
2013-10-27,73,57,45,50,44,39,84,64,41,30.03,29.59,15,2,15,0.00
2013-10-28,72,59,48,50,43,36,88,58,35,29.89,29.62,11,1,11,0.00
2013-10-29,68,57,50,50,44,37,77,61,42,30.07,29.86,5,1,6,0.00
2013-10-30,72,55,42,50,43,37,95,65,36,30.18,30.07,7,0,7,0.00
2013-10-31,76,56,42,48,42,37,87,62,34,30.24,30.09,4,0,4,0.00
2013-11-1,80,59,42,48,42,37,90,57,31,30.21,30.03,5,0,5,0.00
2013-11-2,77,62,42,50,44,34,76,52,34,30.07,29.89,7,1,7,0.00
2013-11-3,66,58,51,43,29,25,65,34,23,30.07,29.95,8,2,10,0.00
2013-11-4,71,58,45,34,23,-15,44,29,3,30.09,29.92,10,2,10,0.00
2013-11-5,73,56,40,39,30,23,57,38,23,30.27,30.07,4,0,4,0.00
2013-11-6,73,56,43,43,35,27,65,45,29,30.33,30.18,4,0,4,0.00
2013-11-7,77,60,46,45,37,34,69,45,25,30.21,30.07,5,0,5,0.00
2013-11-8,77,57,42,48,40,34,81,54,34,30.12,29.95,5,0,5,0.00
2013-11-9,74,57,43,46,40,37,81,57,33,30.09,30.01,3,0,3,0.00
2013-11-10,74,54,42,46,40,36,82,62,34,30.18,30.07,4,0,4,0.00
2013-11-11,71,49,41,50,43,37,98,81,35,30.21,30.09,5,0,5,0.00
2013-11-12,73,60,50,46,42,37,71,53,33,30.30,30.18,6,0,6,0.00
2013-11-13,77,54,43,50,42,37,92,66,32,30.27,30.07,6,0,6,0.00
2013-11-14,69,55,47,52,45,41,87,70,46,30.12,29.83,6,0,6,0.00
2013-11-15,68,54,42,48,38,28,97,60,24,29.89,29.71,12,1,12,0.00
2013-11-16,45,44,44,36,35,34,71,69,67,29.80,29.77,2,0,2,0.00
2013-11-17,64,49,39,48,41,34,93,74,50,30.12,29.95,6,1,6,0.00
2013-11-18,62,51,40,52,43,37,96,75,49,30.18,30.09,8,1,8,0.00
2013-11-19,68,57,50,55,49,45,96,75,51,30.15,29.98,6,0,6,0.00
2013-11-20,60,56,54,57,56,54,98,96,87,29.98,29.86,8,1,8,0.00
2013-11-21,61,55,49,55,36,25,98,52,33,30.03,29.89,14,3,14,0.00
2013-11-22,70,55,43,41,17,-15,85,34,3,30.07,29.95,10,2,10,0.00
2013-11-23,64,49,39,50,42,37,96,77,49,30.15,30.01,5,0,5,0.00
2013-11-24,64,54,39,48,41,37,95,64,49,30.30,30.12,4,0,4,0.00
2013-11-25,64,48,38,48,40,37,97,75,45,30.42,30.30,4,0,4,0.00
2013-11-26,63,45,39,46,40,37,95,82,46,30.36,30.09,4,0,4,0.00
2013-11-27,65,53,43,48,42,37,93,67,46,30.12,29.89,4,0,4,0.00
2013-11-28,67,52,42,48,42,39,92,71,40,30.01,29.89,4,0,4,0.00
2013-11-29,67,50,40,46,39,36,93,69,42,30.24,30.07,4,0,4,0.00
2013-11-30,66,50,41,48,40,36,93,70,40,30.33,30.18,6,0,6,0.00
2013-12-1,65,50,39,48,41,36,95,71,45,30.39,30.24,4,0,4,0.00
2013-12-2,67,52,39,52,44,37,97,75,46,30.27,29.95,7,1,7,0.00
2013-12-3,56,52,42,54,30,-9,96,47,6,29.98,29.83,13,2,13,0.00
2013-12-4,48,40,30,21,16,3,52,38,16,30.12,29.95,9,2,9,0.00
2013-12-5,49,36,27,21,14,9,52,42,27,30.24,30.09,6,0,6,0.00
2013-12-6,49,39,28,36,24,10,85,57,44,30.27,29.95,13,2,13,0.00
2013-12-7,48,39,30,43,30,23,97,70,44,30.27,29.95,13,1,13,0.00
2013-12-8,43,34,29,27,22,16,89,63,42,30.39,30.27,6,1,6,0.00
2013-12-9,47,34,24,28,22,14,83,62,45,30.51,30.36,6,0,6,0.00
2013-12-10,50,37,26,32,25,21,91,64,39,30.48,30.24,4,0,4,0.00
2013-12-11,54,39,28,36,27,23,90,65,41,30.33,30.24,5,0,5,0.00
2013-12-12,56,37,28,37,29,23,94,74,43,30.33,30.18,5,0,5,0.00
2013-12-13,58,42,30,39,31,25,96,66,38,30.42,30.24,6,1,6,0.00
2013-12-14,58,42,31,37,32,25,89,67,42,30.48,30.39,5,0,5,0.00
2013-12-15,58,42,30,41,32,27,96,70,44,30.45,30.30,4,0,4,0.00
2013-12-16,59,43,32,41,34,30,94,72,46,30.33,30.18,3,0,3,0.00
2013-12-17,63,46,35,45,38,34,94,72,44,30.27,30.07,3,0,3,0.00
2013-12-18,62,51,40,46,40,37,93,68,45,30.09,29.74,6,1,6,0.00
2013-12-19,60,51,40,43,30,16,97,50,25,29.95,29.71,12,2,12,0.00
2013-12-20,59,46,33,32,16,-9,68,33,6,30.07,29.95,9,1,9,0.00
2013-12-21,58,44,34,37,31,25,87,60,37,30.15,30.01,6,0,6,0.00
2013-12-22,59,46,33,39,33,28,88,62,43,30.36,30.12,4,0,4,0.00
2013-12-23,62,47,34,43,35,30,92,64,41,30.45,30.33,5,0,5,0.00
2013-12-24,61,46,36,43,36,32,91,69,45,30.39,30.24,4,0,4,0.00
2013-12-25,63,46,34,45,37,32,95,72,44,30.39,30.24,5,0,5,0.00
2013-12-26,62,44,32,43,34,30,97,69,39,30.33,30.21,3,0,3,0.00
2013-12-27,60,44,33,39,33,30,89,66,43,30.30,30.15,3,0,3,0.00
2013-12-28,67,46,31,41,30,23,96,59,26,30.18,30.03,5,0,6,0.00
2013-12-29,60,44,32,39,32,23,78,62,43,30.27,30.12,5,0,6,0.00
2013-12-30,61,45,33,41,33,28,96,64,40,30.33,30.24,4,0,4,0.00
2013-12-31,62,46,36,41,32,25,87,61,35,30.33,30.18,4,0,4,0.00
2014-1-1,61,44,33,37,31,27,83,61,38,30.27,30.15,4,0,4,0.00
2014-1-2,63,46,34,41,33,28,91,61,36,30.27,30.07,4,0,4,0.00